createdAt,value
2022-08-19T00:01:44.131Z,76.13
2022-08-19T00:04:16.249Z,75.58
2022-08-19T00:06:45.735Z,75.83
2022-08-19T00:09:16.080Z,77.28
2022-08-19T00:11:45.932Z,77.51
2022-08-19T00:14:17.118Z,77.42
2022-08-19T00:16:46.440Z,78.30
2022-08-19T00:19:15.349Z,77.17
2022-08-19T00:21:44.324Z,76.87
2022-08-19T00:24:14.305Z,77.04
2022-08-19T00:26:43.289Z,77.19
2022-08-19T00:29:15.626Z,77.42
2022-08-19T00:31:44.728Z,77.41
2022-08-19T00:34:13.225Z,76.03
2022-08-19T00:36:41.812Z,75.92
2022-08-19T00:39:10.436Z,75.29
2022-08-19T00:41:38.724Z,75.64
2022-08-19T00:44:09.161Z,75.55
2022-08-19T00:46:40.737Z,75.61
2022-08-19T00:49:12.419Z,75.75
2022-08-19T00:51:41.202Z,75.37
2022-08-19T00:54:10.125Z,74.84
2022-08-19T00:56:38.523Z,74.03
2022-08-19T00:59:10.109Z,74.96
2022-08-19T01:01:40.232Z,74.21
2022-08-19T01:04:08.835Z,73.73
2022-08-19T01:06:38.070Z,74.84
2022-08-19T01:09:06.958Z,74.58
2022-08-19T01:11:38.105Z,74.04
2022-08-19T01:14:06.382Z,73.30
2022-08-19T01:16:34.939Z,74.39
2022-08-19T01:19:04.691Z,73.44
2022-08-19T01:21:36.680Z,74.96
2022-08-19T01:24:06.560Z,76.16
2022-08-19T01:26:42.070Z,76.63
2022-08-19T01:29:10.418Z,76.16
2022-08-19T01:31:40.290Z,76.97
2022-08-19T01:34:09.126Z,76.80
2022-08-19T01:36:39.194Z,77.35
2022-08-19T01:39:13.137Z,77.84
2022-08-19T01:41:41.594Z,77.91
2022-08-19T01:44:17.327Z,76.92
2022-08-19T01:46:48.199Z,77.87
2022-08-19T01:49:16.950Z,78.14
2022-08-19T01:51:44.938Z,78.11
2022-08-19T01:54:26.977Z,77.68
2022-08-19T01:57:01.610Z,77.83
2022-08-19T01:59:30.013Z,76.91
2022-08-19T02:01:58.415Z,76.95
2022-08-19T02:04:27.587Z,77.76
2022-08-19T02:06:55.714Z,77.62
2022-08-19T02:09:25.117Z,76.46
2022-08-19T02:11:53.280Z,76.58
2022-08-19T02:14:21.339Z,77.74
2022-08-19T02:16:49.354Z,76.87
2022-08-19T02:19:17.408Z,75.79
2022-08-19T02:21:45.520Z,77.15
2022-08-19T02:24:13.860Z,76.45
2022-08-19T02:26:43.553Z,76.14
2022-08-19T02:29:11.870Z,75.63
2022-08-19T02:31:39.889Z,75.11
2022-08-19T02:34:07.858Z,76.13
2022-08-19T02:36:35.909Z,76.53
2022-08-19T02:39:03.149Z,76.65
2022-08-19T02:41:33.610Z,76.33
2022-08-19T02:44:22.958Z,76.76
2022-08-19T02:46:53.204Z,76.09
2022-08-19T02:49:21.681Z,76.59
2022-08-19T02:51:49.665Z,76.95
2022-08-19T02:54:18.259Z,77.06
2022-08-19T02:56:47.356Z,77.09
2022-08-19T02:59:16.739Z,77.57
2022-08-19T03:01:44.852Z,77.21
2022-08-19T03:04:16.613Z,77.46
2022-08-19T03:06:47.547Z,77.11
2022-08-19T03:09:16.678Z,77.60
2022-08-19T03:11:44.752Z,77.37
2022-08-19T03:14:13.812Z,77.78
2022-08-19T03:16:47.087Z,76.61
2022-08-19T03:19:16.303Z,77.28
2022-08-19T03:21:45.899Z,76.59
2022-08-19T03:24:15.551Z,76.29
2022-08-19T03:26:45.423Z,77.24
2022-08-19T03:29:13.586Z,76.69
2022-08-19T03:31:52.704Z,76.48
2022-08-19T03:34:24.076Z,76.36
2022-08-19T03:36:52.048Z,76.09
2022-08-19T03:39:20.052Z,76.47
2022-08-19T03:41:49.992Z,76.46
2022-08-19T03:44:38.624Z,75.98
2022-08-19T03:47:08.545Z,75.17
2022-08-19T03:49:37.575Z,75.30
2022-08-19T03:52:08.545Z,74.59
2022-08-19T03:54:37.282Z,74.46
2022-08-19T03:57:05.798Z,75.45
2022-08-19T03:59:35.465Z,75.00
2022-08-19T04:02:09.973Z,75.92
2022-08-19T04:04:40.876Z,75.18
2022-08-19T04:07:10.399Z,74.97
2022-08-19T04:09:39.008Z,74.23
2022-08-19T04:12:07.934Z,75.47
2022-08-19T04:14:36.827Z,75.93
2022-08-19T04:17:06.427Z,75.84
2022-08-19T04:19:35.290Z,75.60
2022-08-19T04:22:05.494Z,74.99
2022-08-19T04:24:33.740Z,74.19
2022-08-19T04:27:02.999Z,74.30
2022-08-19T04:29:31.643Z,75.19
2022-08-19T04:32:00.406Z,76.15
2022-08-19T04:35:01.161Z,76.27
2022-08-19T04:37:35.106Z,76.23
2022-08-19T04:40:24.554Z,75.42
2022-08-19T04:42:52.725Z,74.92
2022-08-19T04:45:23.114Z,75.04
2022-08-19T04:47:57.856Z,75.05
2022-08-19T04:50:26.740Z,74.36
2022-08-19T04:52:56.497Z,74.74
2022-08-19T04:55:26.406Z,74.31
2022-08-19T04:57:54.493Z,74.28
2022-08-19T05:00:22.539Z,74.59
2022-08-19T05:02:50.543Z,73.64
2022-08-19T05:05:19.298Z,74.04
2022-08-19T05:07:47.342Z,73.84
2022-08-19T05:10:16.680Z,73.65
2022-08-19T05:12:44.708Z,73.78
2022-08-19T05:15:13.020Z,73.98
2022-08-19T05:18:02.187Z,73.47
2022-08-19T05:20:47.965Z,73.57
2022-08-19T05:23:21.863Z,72.91
2022-08-19T05:25:52.602Z,74.24
2022-08-19T05:28:21.061Z,74.45
2022-08-19T05:30:49.135Z,74.79
2022-08-19T05:33:17.148Z,74.06
2022-08-19T05:35:45.403Z,74.54
2022-08-19T05:38:13.669Z,73.53
2022-08-19T05:40:42.540Z,73.05
2022-08-19T05:43:11.876Z,73.32
2022-08-19T05:45:41.366Z,74.07
2022-08-19T05:48:12.022Z,73.49
2022-08-19T05:50:40.971Z,73.57
2022-08-19T05:53:09.764Z,75.06
2022-08-19T05:55:39.197Z,74.07
2022-08-19T05:58:08.470Z,74.77
2022-08-19T06:00:38.573Z,74.42
2022-08-19T06:03:12.724Z,74.82
2022-08-19T06:05:51.378Z,74.11
2022-08-19T06:08:33.955Z,74.62
2022-08-19T06:11:18.784Z,75.09
2022-08-19T06:13:48.559Z,76.48
2022-08-19T06:16:21.833Z,76.81
2022-08-19T06:18:52.544Z,75.62
2022-08-19T06:21:21.221Z,76.50
2022-08-19T06:23:49.554Z,75.96
2022-08-19T06:26:18.285Z,75.42
2022-08-19T06:28:47.368Z,75.41
2022-08-19T06:31:17.514Z,75.72
2022-08-19T06:33:46.949Z,75.96
2022-08-19T06:36:20.036Z,76.63
2022-08-19T06:38:48.071Z,75.81
2022-08-19T06:41:16.099Z,75.31
2022-08-19T06:43:44.832Z,76.35
2022-08-19T06:46:15.524Z,78.26
2022-08-19T06:48:45.861Z,78.51
2022-08-19T06:51:16.672Z,78.74
2022-08-19T06:53:47.960Z,78.29
2022-08-19T06:56:18.188Z,78.32
2022-08-19T06:58:46.588Z,78.64
2022-08-19T07:01:14.922Z,78.89
2022-08-19T07:03:42.992Z,77.86
2022-08-19T07:06:32.665Z,78.36
2022-08-19T07:09:05.098Z,79.54
2022-08-19T07:11:34.546Z,79.38
2022-08-19T07:14:02.722Z,79.63
2022-08-19T07:16:31.390Z,79.37
2022-08-19T07:19:00.381Z,77.95
2022-08-19T07:21:42.562Z,77.62
2022-08-19T07:24:11.014Z,78.06
2022-08-19T07:26:42.203Z,77.23
2022-08-19T07:29:10.760Z,78.36
2022-08-19T07:31:39.377Z,79.50
2022-08-19T07:34:12.500Z,78.13
2022-08-19T07:36:43.474Z,79.15
2022-08-19T07:39:14.997Z,79.23
2022-08-19T07:41:43.268Z,78.53
2022-08-19T07:44:13.423Z,79.05
2022-08-19T07:46:46.488Z,78.55
2022-08-19T07:49:20.143Z,78.70
2022-08-19T07:51:51.779Z,79.53
2022-08-19T07:54:20.936Z,79.36
2022-08-19T07:56:49.020Z,78.50
2022-08-19T07:59:21.469Z,78.65
2022-08-19T08:01:51.101Z,79.27
2022-08-19T08:04:37.341Z,78.58
2022-08-19T08:07:25.140Z,78.35
2022-08-19T08:10:03.328Z,79.32
2022-08-19T08:12:35.520Z,80.68
2022-08-19T08:15:12.485Z,79.61
2022-08-19T08:17:49.651Z,79.42
2022-08-19T08:20:20.757Z,78.26
2022-08-19T08:23:08.009Z,77.99
2022-08-19T08:25:37.382Z,78.98
2022-08-19T08:28:06.386Z,79.25
2022-08-19T08:30:36.824Z,79.28
2022-08-19T08:33:06.199Z,79.61
2022-08-19T08:35:34.569Z,78.67
2022-08-19T08:38:05.324Z,78.65
2022-08-19T08:40:40.581Z,77.68
2022-08-19T08:43:11.647Z,77.20
2022-08-19T08:45:45.869Z,77.15
2022-08-19T08:48:25.482Z,77.92
2022-08-19T08:50:57.062Z,76.73
2022-08-19T08:53:31.192Z,76.67
2022-08-19T08:56:01.416Z,76.93
2022-08-19T08:58:44.267Z,76.93
2022-08-19T09:01:13.332Z,76.17
2022-08-19T09:03:44.078Z,75.43
2022-08-19T09:06:17.021Z,75.35
2022-08-19T09:08:56.649Z,75.04
2022-08-19T09:11:42.610Z,74.93
2022-08-19T09:14:47.269Z,74.94
2022-08-19T09:17:11.471Z,74.52
2022-08-19T09:19:51.850Z,74.85
2022-08-19T09:22:25.751Z,74.99
2022-08-19T09:24:56.764Z,75.40
2022-08-19T09:27:35.424Z,75.03
2022-08-19T09:30:14.842Z,75.58
2022-08-19T09:32:44.341Z,77.01
2022-08-19T09:35:13.871Z,77.68
2022-08-19T09:37:42.150Z,77.42
2022-08-19T09:40:14.261Z,77.44
2022-08-19T09:42:49.649Z,77.10
2022-08-19T09:45:19.262Z,78.99
2022-08-19T09:47:47.808Z,80.78
2022-08-19T09:50:16.807Z,81.43
2022-08-19T09:52:55.284Z,80.24
2022-08-19T09:55:34.313Z,80.32
2022-08-19T09:58:39.212Z,80.54
2022-08-19T10:02:38.699Z,82.42
2022-08-19T10:05:30.486Z,81.62
2022-08-19T10:08:02.002Z,82.03
2022-08-19T11:07:36.598Z,76.70
2022-08-19T11:14:55.519Z,77.39
2022-08-19T11:17:24.514Z,74.93
2022-08-19T11:19:52.633Z,76.95
2022-08-19T11:22:20.957Z,78.60
2022-08-19T11:24:48.949Z,78.15
2022-08-19T11:27:17.969Z,75.47
2022-08-19T11:29:45.958Z,75.62
2022-08-19T11:32:16.550Z,73.43
2022-08-19T11:34:44.520Z,73.88
2022-08-19T11:37:12.677Z,72.08
2022-08-19T11:39:42.660Z,70.43
2022-08-19T11:42:24.645Z,71.55
2022-08-19T11:44:54.904Z,71.72
2022-08-19T11:47:24.396Z,71.83
2022-08-19T11:49:52.715Z,72.21
2022-08-19T11:52:20.777Z,71.44
2022-08-19T11:54:48.761Z,71.05
2022-08-19T11:57:18.037Z,71.18
2022-08-19T11:59:50.849Z,70.38
2022-08-19T12:02:20.044Z,71.45
2022-08-19T12:04:49.461Z,71.01
2022-08-19T12:07:17.717Z,71.41
2022-08-19T12:09:45.926Z,71.60
2022-08-19T12:12:17.045Z,72.50
2022-08-19T12:14:47.505Z,72.12
2022-08-19T12:17:15.607Z,72.37
2022-08-19T12:19:43.702Z,72.52
2022-08-19T12:22:13.436Z,72.11
2022-08-19T12:24:41.542Z,74.85
2022-08-19T12:27:12.971Z,75.81
2022-08-19T12:29:41.942Z,74.42
2022-08-19T12:32:10.438Z,76.07
2022-08-19T12:34:40.766Z,74.67
2022-08-19T12:37:09.443Z,76.24
2022-08-19T12:39:42.467Z,76.48
2022-08-19T12:42:11.439Z,76.00
2022-08-19T12:44:41.725Z,76.59
2022-08-19T12:47:12.478Z,76.51
2022-08-19T12:49:53.573Z,77.06
2022-08-19T12:52:25.376Z,77.08
2022-08-19T12:54:56.899Z,76.86
2022-08-19T12:57:31.917Z,77.16
2022-08-19T13:00:05.449Z,77.39
2022-08-19T13:02:38.804Z,76.52
2022-08-19T13:05:10.268Z,77.26
2022-08-19T13:07:39.524Z,76.87
2022-08-19T13:10:12.077Z,77.21
2022-08-19T13:12:41.969Z,76.66
2022-08-19T13:15:11.485Z,77.32
2022-08-19T13:17:41.500Z,77.23
2022-08-19T13:20:11.572Z,77.50
2022-08-19T13:22:39.680Z,77.65
2022-08-19T13:25:10.445Z,79.24
2022-08-19T13:27:39.032Z,82.21
2022-08-19T13:30:26.765Z,84.08
2022-08-19T13:33:17.627Z,82.67
2022-08-19T13:35:48.815Z,81.74
2022-08-19T13:38:19.036Z,78.68
2022-08-19T13:40:51.280Z,79.38
2022-08-19T13:43:23.290Z,79.34
2022-08-19T13:45:53.633Z,80.17
2022-08-19T13:48:21.929Z,79.24
2022-08-19T13:50:50.483Z,78.79
2022-08-19T13:53:19.433Z,78.69
2022-08-19T13:55:49.656Z,78.67
2022-08-19T13:58:17.762Z,78.37
2022-08-19T14:00:48.597Z,78.47
2022-08-19T14:03:17.126Z,78.44
2022-08-19T14:05:45.171Z,77.57
2022-08-19T14:08:13.312Z,79.64
2022-08-19T14:10:41.849Z,78.72
2022-08-19T14:13:11.235Z,76.23
2022-08-19T14:15:39.887Z,75.70
2022-08-19T14:18:08.096Z,75.75
2022-08-19T14:20:36.251Z,76.49
2022-08-19T14:23:06.131Z,75.25
2022-08-19T14:25:35.194Z,76.45
2022-08-19T14:28:04.093Z,75.70
2022-08-19T14:30:35.557Z,75.88
2022-08-19T14:33:04.038Z,75.82
2022-08-19T14:35:35.685Z,75.47
2022-08-19T14:38:05.805Z,75.10
2022-08-19T14:40:34.259Z,75.52
2022-08-19T14:43:05.448Z,75.44
2022-08-19T14:45:37.484Z,75.99
2022-08-19T14:48:05.748Z,74.78
2022-08-19T14:50:34.298Z,74.95
2022-08-19T14:53:11.954Z,72.32
2022-08-19T14:55:44.275Z,71.64
2022-08-19T14:58:28.805Z,73.55
2022-08-19T15:01:01.081Z,73.56
2022-08-19T15:03:29.619Z,73.38
2022-08-19T15:05:58.677Z,71.00
2022-08-19T15:08:27.677Z,72.13
2022-08-19T15:10:57.112Z,70.99
2022-08-19T15:13:26.119Z,70.71
2022-08-19T15:15:54.785Z,71.17
2022-08-19T15:18:24.118Z,70.23
2022-08-19T15:20:52.381Z,70.47
2022-08-19T15:23:21.245Z,70.86
2022-08-19T15:25:52.960Z,71.32
2022-08-19T15:28:21.217Z,70.69
2022-08-19T15:30:50.981Z,70.77
2022-08-19T15:33:21.003Z,69.93
2022-08-19T15:35:51.943Z,69.97
2022-08-19T15:38:22.355Z,69.53
2022-08-19T15:40:51.231Z,69.25
2022-08-19T15:43:21.759Z,70.12
2022-08-19T15:45:49.870Z,70.47
2022-08-19T15:48:17.844Z,70.53
2022-08-19T15:50:45.849Z,69.81
2022-08-19T15:53:15.310Z,70.24
2022-08-19T15:55:45.620Z,69.02
2022-08-19T15:58:33.183Z,69.67
2022-08-19T16:01:21.315Z,69.98
2022-08-19T16:04:14.053Z,70.56
2022-08-19T16:06:45.381Z,70.99
2022-08-19T16:09:15.772Z,70.94
2022-08-19T16:11:45.824Z,70.88
2022-08-19T16:14:15.542Z,71.78
2022-08-19T16:16:47.054Z,72.81
2022-08-19T16:19:17.031Z,72.82
2022-08-19T16:21:46.191Z,72.83
2022-08-19T16:24:18.067Z,72.26
2022-08-19T16:26:46.586Z,72.59
2022-08-19T16:29:15.641Z,73.88
2022-08-19T16:32:02.866Z,73.43
2022-08-19T16:34:31.769Z,72.89
2022-08-19T16:37:01.725Z,73.29
2022-08-19T16:39:31.183Z,73.76
2022-08-19T16:41:59.653Z,76.34
2022-08-19T16:44:29.921Z,76.67
2022-08-19T16:46:59.556Z,78.09
2022-08-19T16:49:54.227Z,77.93
2022-08-19T16:52:16.324Z,77.17
2022-08-19T16:54:45.794Z,77.89
2022-08-19T16:57:14.089Z,78.40
2022-08-19T16:59:43.774Z,78.76
2022-08-19T17:02:17.779Z,79.56
2022-08-19T17:04:55.680Z,79.02
2022-08-19T17:07:27.579Z,77.75
2022-08-19T17:09:57.710Z,78.70
2022-08-19T17:12:30.385Z,79.98
2022-08-19T17:15:00.727Z,81.15
2022-08-19T17:17:29.543Z,81.89
2022-08-19T17:19:57.781Z,82.47
2022-08-19T17:22:25.892Z,82.51
2022-08-19T17:24:54.056Z,82.79
2022-08-19T17:27:26.439Z,83.18
2022-08-19T17:29:54.580Z,82.70
2022-08-19T17:32:25.028Z,83.00
2022-08-19T17:34:54.199Z,82.66
2022-08-19T17:37:22.375Z,82.90
2022-08-19T17:39:50.494Z,83.41
2022-08-19T17:42:18.542Z,82.91
2022-08-19T17:44:50.572Z,83.74
2022-08-19T17:47:19.450Z,83.74
2022-08-19T17:49:48.364Z,83.92
2022-08-19T17:52:16.639Z,84.21
2022-08-19T17:54:44.623Z,84.75
2022-08-19T17:57:14.088Z,83.79
2022-08-19T17:59:42.141Z,83.45
2022-08-19T18:02:12.368Z,83.57
2022-08-19T18:04:40.520Z,83.69
2022-08-19T18:07:08.553Z,83.81
2022-08-19T18:09:41.559Z,82.73
2022-08-19T18:12:12.018Z,80.67
2022-08-19T18:14:40.793Z,80.41
2022-08-19T18:17:12.470Z,80.18
2022-08-19T18:19:43.275Z,81.32
2022-08-19T18:22:13.628Z,80.70
2022-08-19T18:24:46.058Z,80.58
2022-08-19T18:27:14.467Z,81.20
2022-08-19T18:29:43.341Z,80.09
2022-08-19T18:32:13.730Z,81.26
2022-08-19T18:34:42.802Z,81.23
2022-08-19T18:37:11.018Z,81.89
2022-08-19T18:39:56.148Z,81.66
2022-08-19T18:42:42.130Z,83.28
2022-08-19T18:45:28.325Z,83.84
2022-08-19T18:48:26.759Z,84.47
2022-08-19T18:50:57.692Z,84.92
2022-08-19T18:53:26.212Z,84.58
2022-08-19T18:55:55.277Z,84.57
2022-08-19T18:58:26.349Z,83.58
2022-08-19T19:00:57.365Z,83.68
2022-08-19T19:03:27.723Z,83.60
2022-08-19T19:05:55.946Z,83.41
2022-08-19T19:08:27.165Z,83.41
2022-08-19T19:10:57.050Z,82.64
2022-08-19T19:13:25.067Z,83.36
2022-08-19T19:15:54.453Z,82.14
2022-08-19T19:18:22.472Z,82.93
2022-08-19T19:20:51.890Z,82.94
2022-08-19T19:23:20.631Z,82.82
2022-08-19T19:25:51.131Z,83.06
2022-08-19T19:28:25.685Z,83.00
2022-08-19T19:30:54.457Z,83.55
2022-08-19T19:33:22.559Z,83.49
2022-08-19T19:35:51.865Z,82.83
2022-08-19T19:38:19.901Z,83.75
2022-08-19T19:40:47.911Z,83.72
2022-08-19T19:43:18.392Z,82.81
2022-08-19T19:45:47.538Z,83.91
2022-08-19T19:48:16.343Z,83.38
2022-08-19T19:50:45.687Z,83.50
2022-08-19T19:53:15.682Z,82.03
2022-08-19T19:55:43.873Z,83.84
2022-08-19T19:58:11.960Z,83.98
2022-08-19T20:00:40.122Z,83.33
2022-08-19T20:03:08.153Z,83.46
2022-08-19T20:05:36.247Z,82.73
2022-08-19T20:08:22.035Z,83.47
2022-08-19T20:10:51.384Z,83.35
2022-08-19T20:13:19.485Z,83.31
2022-08-19T20:15:47.521Z,83.86
2022-08-19T20:18:15.639Z,83.33
2022-08-19T20:20:45.010Z,83.21
2022-08-19T20:23:13.395Z,83.69
2022-08-19T20:25:42.059Z,84.06
2022-08-19T20:28:12.454Z,83.57
2022-08-19T20:30:43.769Z,84.08
2022-08-19T20:33:14.807Z,84.00
2022-08-19T20:35:44.093Z,83.67
2022-08-19T20:38:12.198Z,83.09
2022-08-19T20:40:41.192Z,83.83
2022-08-19T20:43:12.356Z,83.58
2022-08-19T20:45:40.771Z,83.46
2022-08-19T20:48:10.592Z,83.86
2022-08-19T20:50:38.709Z,83.99
2022-08-19T20:53:14.103Z,83.90
2022-08-19T20:55:44.349Z,83.43
2022-08-19T20:58:14.646Z,83.56
2022-08-19T21:00:45.581Z,83.80
2022-08-19T21:03:14.463Z,84.12
2022-08-19T21:05:42.486Z,83.54
2022-08-19T21:08:10.974Z,84.32
2022-08-19T21:10:42.282Z,84.39
2022-08-19T21:13:10.573Z,84.50
2022-08-19T21:15:43.127Z,84.05
2022-08-19T21:18:12.269Z,83.99
2022-08-19T21:20:41.263Z,84.23
2022-08-19T21:23:11.903Z,83.37
2022-08-19T21:25:40.894Z,83.38
2022-08-19T21:28:11.718Z,84.34
2022-08-19T21:30:46.154Z,84.62
2022-08-19T21:33:14.210Z,84.60
2022-08-19T21:35:42.495Z,85.04
2022-08-19T21:38:10.470Z,85.67
2022-08-19T21:40:38.540Z,85.20
2022-08-19T21:43:06.729Z,85.78
2022-08-19T21:45:34.846Z,86.11
2022-08-19T21:48:04.824Z,86.22
2022-08-19T21:50:33.487Z,86.77
2022-08-19T21:53:02.116Z,87.39
2022-08-19T21:55:30.358Z,87.62
2022-08-19T21:58:00.229Z,88.00
2022-08-19T22:00:30.365Z,88.82
2022-08-19T22:03:01.313Z,88.56
2022-08-19T22:05:31.364Z,88.56
2022-08-19T22:08:00.562Z,88.65
2022-08-19T22:10:32.140Z,89.04
2022-08-19T22:13:00.587Z,89.11
2022-08-19T22:15:29.180Z,89.44
2022-08-19T22:17:58.418Z,89.56
2022-08-19T22:20:28.705Z,89.97
2022-08-19T22:23:00.276Z,89.87
2022-08-19T22:25:31.892Z,90.33
2022-08-19T22:28:01.568Z,90.13
2022-08-19T22:30:33.303Z,90.37
2022-08-19T22:33:04.484Z,90.52
2022-08-19T22:35:37.561Z,90.00
2022-08-19T22:38:08.102Z,89.91
2022-08-19T22:40:39.608Z,89.93
2022-08-19T22:43:10.115Z,90.33
2022-08-19T22:45:38.138Z,90.30
2022-08-19T22:48:07.843Z,90.46
2022-08-19T22:50:36.212Z,90.27
2022-08-19T22:53:04.528Z,90.45
2022-08-19T22:55:35.215Z,90.74
2022-08-19T22:58:03.248Z,90.67
2022-08-19T23:00:31.963Z,91.08
2022-08-19T23:03:01.597Z,90.91
2022-08-19T23:05:30.416Z,90.70
2022-08-19T23:07:59.490Z,90.23
2022-08-19T23:10:28.977Z,90.39
2022-08-19T23:12:59.742Z,89.86
2022-08-19T23:15:29.842Z,89.89
2022-08-19T23:18:01.400Z,89.83
2022-08-19T23:20:32.942Z,90.40
2022-08-19T23:23:02.772Z,90.50
2022-08-19T23:25:32.711Z,90.84
2022-08-19T23:28:19.952Z,90.34
2022-08-19T23:30:49.644Z,90.88
2022-08-19T23:33:21.660Z,90.51
2022-08-19T23:35:51.772Z,90.24
2022-08-19T23:38:22.719Z,89.41
2022-08-19T23:40:51.542Z,88.76
2022-08-19T23:43:25.017Z,88.78
2022-08-19T23:45:57.474Z,88.53
2022-08-19T23:48:26.077Z,88.97
2022-08-19T23:50:57.510Z,88.67
2022-08-19T23:53:25.685Z,88.24
2022-08-19T23:55:54.168Z,88.49
2022-08-19T23:58:23.805Z,87.96
